Terminal Aerodrome Forecast
Issued by NWS Buffalo, NY

Home | Current Version | Previous Version | Text Only | Print | Product List | Glossary On
Versions: 1 2 3 4 5 6 7 8 9 10 11 12 13 14 15 16 17 18 19 20 21 22 23
000
FTUS41 KBUF 192328
TAFART
TAF
KART 192328Z 2000/2024 21006KT P6SM OVC080
     FM200500 27005KT P6SM BKN045
     FM200900 28004KT P6SM SCT070
     FM201800 25014G20KT P6SM FEW250=

USA.gov is the U.S. government's official web portal to all federal, state and local government web resources and services.